createdAt,value
2017-07-22T00:01:40.318Z,100721.80
2017-07-22T00:04:07.705Z,100719.31
2017-07-22T00:06:35.095Z,100713.88
2017-07-22T00:09:02.484Z,100707.86
2017-07-22T00:11:29.866Z,100715.17
2017-07-22T00:13:57.298Z,100710.64
2017-07-22T00:16:24.911Z,100715.95
2017-07-22T00:18:52.297Z,100708.27
2017-07-22T00:21:19.679Z,100709.42
2017-07-22T00:23:47.070Z,100704.67
2017-07-22T00:26:14.459Z,100711.14
2017-07-22T00:28:41.855Z,100703.51
2017-07-22T00:31:09.234Z,100698.62
2017-07-22T00:33:36.626Z,100689.82
2017-07-22T00:36:04.226Z,100692.31
2017-07-22T00:38:31.616Z,100687.33
2017-07-22T00:40:59.003Z,100692.59
2017-07-22T00:43:26.394Z,100693.67
2017-07-22T00:45:53.810Z,100688.84
2017-07-22T00:48:21.208Z,100685.75
2017-07-22T00:50:48.587Z,100678.67
2017-07-22T00:53:15.974Z,100675.90
2017-07-22T00:55:43.371Z,100672.65
2017-07-22T00:58:10.781Z,100669.94
2017-07-22T01:00:38.169Z,100670.16
2017-07-22T01:03:05.558Z,100670.80
2017-07-22T01:05:32.949Z,100669.33
2017-07-22T01:08:00.336Z,100659.77
2017-07-22T01:12:52.926Z,100658.19
2017-07-22T01:15:20.317Z,100661.05
2017-07-22T01:17:47.703Z,100653.65
2017-07-22T01:20:15.091Z,100648.11
2017-07-22T01:22:42.495Z,100649.35
2017-07-22T01:25:09.887Z,100644.81
2017-07-22T01:27:37.270Z,100642.14
2017-07-22T01:30:04.672Z,100640.98
2017-07-22T01:32:32.058Z,100635.98
2017-07-22T01:34:59.451Z,100643.11
2017-07-22T01:37:26.838Z,100631.77
2017-07-22T01:39:54.238Z,100630.07
2017-07-22T01:42:21.637Z,100637.41
2017-07-22T01:44:49.035Z,100633.39
2017-07-22T01:47:16.410Z,100631.92
2017-07-22T01:49:43.811Z,100625.91
2017-07-22T01:52:11.191Z,100623.65
2017-07-22T01:54:38.596Z,100618.65
2017-07-22T01:57:05.986Z,100606.76
2017-07-22T01:59:33.382Z,100616.75
2017-07-22T02:02:00.766Z,100605.33
2017-07-22T02:04:28.163Z,100608.71
2017-07-22T02:06:55.549Z,100603.11
2017-07-22T02:09:22.947Z,100602.42
2017-07-22T02:11:50.336Z,100600.62
2017-07-22T02:14:17.743Z,100597.80
2017-07-22T02:16:46.014Z,100602.66
2017-07-22T02:19:13.406Z,100610.05
2017-07-22T02:21:40.810Z,100608.70
2017-07-22T02:24:08.194Z,100613.56
2017-07-22T02:26:35.573Z,100619.53
2017-07-22T02:29:02.970Z,100616.09
2017-07-22T02:31:30.363Z,100613.88
2017-07-22T02:33:57.759Z,100615.08
2017-07-22T02:36:25.156Z,100615.27
2017-07-22T02:38:52.548Z,100612.84
2017-07-22T02:41:19.930Z,100608.91
2017-07-22T02:43:47.316Z,100608.91
2017-07-22T02:46:14.711Z,100604.05
2017-07-22T02:48:42.103Z,100606.31
2017-07-22T02:51:09.495Z,100595.30
2017-07-22T02:53:36.895Z,100595.03
2017-07-22T02:56:04.287Z,100599.41
2017-07-22T02:58:31.675Z,100598.97
2017-07-22T03:00:59.067Z,100600.04
2017-07-22T03:03:26.454Z,100601.36
2017-07-22T03:05:53.849Z,100590.06
2017-07-22T03:08:21.245Z,100588.49
2017-07-22T03:10:48.630Z,100596.77
2017-07-22T03:13:16.012Z,100588.58
2017-07-22T03:15:43.415Z,100576.19
2017-07-22T03:18:10.817Z,100580.17
2017-07-22T03:20:38.202Z,100581.23
2017-07-22T03:23:05.590Z,100586.49
2017-07-22T03:25:32.983Z,100587.23
2017-07-22T03:28:00.378Z,100596.25
2017-07-22T03:30:28.045Z,100599.17
2017-07-22T03:32:55.427Z,100597.92
2017-07-22T03:35:22.815Z,100598.27
2017-07-22T03:37:50.199Z,100591.39
2017-07-22T03:40:17.871Z,100591.39
2017-07-22T03:42:45.462Z,100592.95
2017-07-22T03:45:12.867Z,100592.97
2017-07-22T03:47:40.251Z,100594.02
2017-07-22T03:50:07.900Z,100597.30
2017-07-22T03:52:41.043Z,100599.56
2017-07-22T03:55:08.450Z,100602.25
2017-07-22T03:57:35.832Z,100602.87
2017-07-22T04:00:03.234Z,100605.42
2017-07-22T04:02:30.618Z,100599.28
2017-07-22T04:04:58.014Z,100601.52
2017-07-22T04:07:25.412Z,100591.82
2017-07-22T04:09:53.011Z,100590.13
2017-07-22T04:12:20.405Z,100585.17
2017-07-22T04:14:47.793Z,100584.45
2017-07-22T04:17:15.186Z,100591.94
2017-07-22T04:19:42.570Z,100586.78
2017-07-22T04:22:09.968Z,100589.88
2017-07-22T04:24:37.359Z,100595.79
2017-07-22T04:27:04.759Z,100603.45
2017-07-22T04:29:32.153Z,100599.40
2017-07-22T04:31:59.543Z,100593.70
2017-07-22T04:34:26.932Z,100597.76
2017-07-22T04:36:54.327Z,100597.45
2017-07-22T04:39:21.710Z,100594.95
2017-07-22T04:41:49.105Z,100603.27
2017-07-22T04:44:16.716Z,100611.27
2017-07-22T04:46:44.116Z,100606.05
2017-07-22T04:49:11.719Z,100608.41
2017-07-22T04:51:39.118Z,100604.59
2017-07-22T04:54:06.502Z,100598.08
2017-07-22T04:56:33.903Z,100603.48
2017-07-22T04:59:01.287Z,100610.55
2017-07-22T05:01:28.681Z,100600.92
2017-07-22T05:03:56.066Z,100602.84
2017-07-22T05:06:23.768Z,100619.67
2017-07-22T05:08:51.149Z,100630.63
2017-07-22T05:11:18.554Z,100627.03
2017-07-22T05:13:45.952Z,100634.41
2017-07-22T05:16:13.363Z,100651.21
2017-07-22T05:18:40.751Z,100654.97
2017-07-22T05:21:08.408Z,100628.59
2017-07-22T05:23:35.798Z,100651.64
2017-07-22T05:26:03.191Z,100656.12
2017-07-22T05:28:30.592Z,100655.23
2017-07-22T05:30:57.988Z,100659.17
2017-07-22T05:33:25.380Z,100659.11
2017-07-22T05:35:52.768Z,100655.10
2017-07-22T05:38:20.166Z,100654.86
2017-07-22T05:40:47.550Z,100652.27
2017-07-22T05:43:14.950Z,100650.22
2017-07-22T05:45:42.342Z,100639.50
2017-07-22T05:48:09.754Z,100649.47
2017-07-22T05:50:37.146Z,100657.63
2017-07-22T05:53:04.546Z,100639.20
2017-07-22T05:55:31.943Z,100651.86
2017-07-22T05:57:59.339Z,100650.22
2017-07-22T06:00:26.740Z,100635.22
2017-07-22T06:02:54.135Z,100642.07
2017-07-22T06:05:21.530Z,100648.67
2017-07-22T06:07:48.927Z,100649.06
2017-07-22T06:10:16.615Z,100649.09
2017-07-22T06:12:44.018Z,100645.80
2017-07-22T06:15:11.429Z,100640.20
2017-07-22T06:17:38.827Z,100638.11
2017-07-22T06:20:06.227Z,100633.17
2017-07-22T06:22:33.625Z,100626.75
2017-07-22T06:25:01.022Z,100632.91
2017-07-22T06:27:28.707Z,100633.27
2017-07-22T06:29:56.107Z,100633.64
2017-07-22T06:32:23.527Z,100639.19
2017-07-22T06:34:50.923Z,100653.47
2017-07-22T06:37:18.315Z,100660.50
2017-07-22T06:39:45.719Z,100655.91
2017-07-22T06:42:13.346Z,100654.91
2017-07-22T06:44:40.746Z,100658.00
2017-07-22T06:47:08.355Z,100659.35
2017-07-22T06:49:35.758Z,100661.09
2017-07-22T06:52:03.154Z,100657.26
2017-07-22T06:54:30.559Z,100655.39
2017-07-22T06:56:57.942Z,100649.29
2017-07-22T06:59:25.344Z,100660.63
2017-07-22T07:01:52.734Z,100662.84
2017-07-22T07:04:20.130Z,100670.53
2017-07-22T07:06:47.535Z,100683.30
2017-07-22T07:09:14.999Z,100684.52
2017-07-22T07:11:42.374Z,100698.15
2017-07-22T07:14:09.775Z,100711.91
2017-07-22T07:16:37.171Z,100727.95
2017-07-22T07:19:04.597Z,100730.89
2017-07-22T07:21:31.966Z,100709.17
2017-07-22T07:23:59.367Z,100706.43
2017-07-22T07:26:26.754Z,100709.02
2017-07-22T07:28:54.154Z,100711.48
2017-07-22T07:31:21.547Z,100719.46
2017-07-22T07:33:48.944Z,100723.59
2017-07-22T07:36:16.339Z,100725.80
2017-07-22T07:38:43.737Z,100729.16
2017-07-22T07:41:11.118Z,100737.14
2017-07-22T07:43:38.506Z,100730.27
2017-07-22T07:46:05.903Z,100730.52
2017-07-22T07:48:33.331Z,100720.95
2017-07-22T07:51:00.771Z,100722.29
2017-07-22T07:53:28.161Z,100718.91
2017-07-22T07:55:55.562Z,100720.00
2017-07-22T07:58:22.946Z,100724.22
2017-07-22T08:00:50.342Z,100730.77
2017-07-22T08:03:19.159Z,100729.49
2017-07-22T08:05:46.546Z,100726.81
2017-07-22T08:08:13.939Z,100732.19
2017-07-22T08:10:41.338Z,100738.91
2017-07-22T08:13:08.730Z,100749.00
2017-07-22T08:15:36.126Z,100770.01
2017-07-22T08:18:03.509Z,100777.52
2017-07-22T08:20:30.919Z,100786.34
2017-07-22T08:22:58.311Z,100788.77
2017-07-22T08:25:25.734Z,100784.48
2017-07-22T08:27:53.131Z,100772.03
2017-07-22T08:30:20.564Z,100760.65
2017-07-22T08:32:47.946Z,100758.42
2017-07-22T08:35:15.343Z,100740.98
2017-07-22T08:37:42.754Z,100733.09
2017-07-22T08:40:10.458Z,100727.02
2017-07-22T08:42:38.123Z,100730.67
2017-07-22T08:45:05.545Z,100727.52
2017-07-22T08:47:33.226Z,100714.66
2017-07-22T08:50:00.635Z,100727.89
2017-07-22T08:52:28.030Z,100736.35
2017-07-22T08:54:55.431Z,100726.09
2017-07-22T08:57:23.034Z,100714.89
2017-07-22T08:59:50.717Z,100723.27
2017-07-22T09:02:18.106Z,100734.83
2017-07-22T09:04:45.523Z,100742.28
2017-07-22T09:07:12.946Z,100748.95
2017-07-22T09:09:40.353Z,100747.14
2017-07-22T09:12:08.000Z,100746.55
2017-07-22T09:14:35.391Z,100737.05
2017-07-22T09:17:02.790Z,100739.52
2017-07-22T09:19:30.185Z,100737.33
2017-07-22T09:21:57.822Z,100736.88
2017-07-22T09:24:25.221Z,100741.35
2017-07-22T09:26:52.618Z,100738.72
2017-07-22T09:29:20.016Z,100746.17
2017-07-22T09:31:47.485Z,100741.48
2017-07-22T09:34:14.868Z,100736.83
2017-07-22T09:36:42.274Z,100727.28
2017-07-22T09:39:09.675Z,100734.51
2017-07-22T09:41:37.085Z,100724.33
2017-07-22T09:44:04.493Z,100726.77
2017-07-22T09:46:31.883Z,100722.34
2017-07-22T09:48:59.278Z,100719.09
2017-07-22T09:51:26.689Z,100725.30
2017-07-22T09:53:54.083Z,100726.70
2017-07-22T09:56:21.486Z,100726.65
2017-07-22T09:58:49.034Z,100720.72
2017-07-22T10:01:16.423Z,100720.77
2017-07-22T10:03:43.819Z,100717.23
2017-07-22T10:06:11.218Z,100721.87
2017-07-22T10:08:38.618Z,100714.08
2017-07-22T10:11:06.021Z,100721.20
2017-07-22T10:13:33.425Z,100720.07
2017-07-22T10:16:00.826Z,100713.94
2017-07-22T10:18:28.218Z,100718.27
2017-07-22T10:20:55.619Z,100720.55
2017-07-22T10:23:23.010Z,100718.10
2017-07-22T10:25:50.406Z,100720.38
2017-07-22T10:28:17.822Z,100717.95
2017-07-22T10:30:45.211Z,100716.94
2017-07-22T10:33:12.617Z,100719.20
2017-07-22T10:35:40.011Z,100710.45
2017-07-22T10:38:07.415Z,100710.93
2017-07-22T10:40:34.802Z,100710.88
2017-07-22T10:43:02.198Z,100716.27
2017-07-22T10:45:29.602Z,100717.78
2017-07-22T10:47:56.989Z,100719.12
2017-07-22T10:50:24.374Z,100720.15
2017-07-22T10:52:51.767Z,100721.00
2017-07-22T10:55:19.163Z,100724.87
2017-07-22T10:57:46.551Z,100729.84
2017-07-22T11:00:13.933Z,100740.34
2017-07-22T11:02:41.326Z,100734.28
2017-07-22T11:05:08.719Z,100745.73
2017-07-22T11:07:36.115Z,100747.83
2017-07-22T11:10:03.506Z,100752.37
2017-07-22T11:12:30.894Z,100752.05
2017-07-22T11:14:58.280Z,100747.77
2017-07-22T11:17:25.666Z,100755.77
2017-07-22T11:19:53.070Z,100748.19
2017-07-22T11:22:20.463Z,100744.91
2017-07-22T11:24:47.851Z,100749.70
2017-07-22T11:27:15.250Z,100741.10
2017-07-22T11:29:42.644Z,100743.89
2017-07-22T11:32:10.039Z,100744.48
2017-07-22T11:34:37.427Z,100740.28
2017-07-22T11:37:04.816Z,100740.03
2017-07-22T11:39:32.210Z,100743.47
2017-07-22T11:41:59.598Z,100745.67
2017-07-22T11:44:27.001Z,100736.58
2017-07-22T11:46:54.386Z,100738.02
2017-07-22T11:49:21.774Z,100746.43
2017-07-22T11:51:49.180Z,100743.13
2017-07-22T11:56:40.848Z,100745.98
2017-07-22T11:59:08.495Z,100737.17
2017-07-22T12:01:35.886Z,100739.02
2017-07-22T12:04:03.285Z,100724.38
2017-07-22T12:06:30.683Z,100728.07
2017-07-22T12:08:58.319Z,100728.83
2017-07-22T12:11:25.714Z,100731.36
2017-07-22T12:13:53.114Z,100727.82
2017-07-22T12:16:20.507Z,100731.03
2017-07-22T12:18:47.906Z,100731.95
2017-07-22T12:21:15.303Z,100725.39
2017-07-22T12:23:42.699Z,100721.89
2017-07-22T12:26:10.087Z,100727.24
2017-07-22T12:28:37.474Z,100726.33
2017-07-22T12:31:04.871Z,100724.91
2017-07-22T12:33:32.265Z,100723.20
2017-07-22T12:35:59.650Z,100716.41
2017-07-22T12:38:27.054Z,100717.80
2017-07-22T12:40:54.443Z,100720.77
2017-07-22T12:43:21.849Z,100721.93
2017-07-22T12:45:49.234Z,100723.51
2017-07-22T12:48:16.650Z,100725.44
2017-07-22T12:50:44.044Z,100727.01
2017-07-22T12:53:11.431Z,100722.48
2017-07-22T12:55:38.823Z,100722.13
2017-07-22T12:58:06.216Z,100715.88
2017-07-22T13:00:33.611Z,100710.96
2017-07-22T13:03:00.998Z,100719.63
2017-07-22T13:05:28.695Z,100726.81
2017-07-22T13:07:56.079Z,100726.36
2017-07-22T13:10:23.485Z,100726.84
2017-07-22T13:12:50.876Z,100730.59
2017-07-22T13:15:18.275Z,100729.51
2017-07-22T13:17:45.665Z,100726.36
2017-07-22T13:20:13.058Z,100729.92
2017-07-22T13:22:40.459Z,100734.80
2017-07-22T13:25:07.867Z,100732.01
2017-07-22T13:27:35.336Z,100730.72
2017-07-22T13:30:02.906Z,100724.28
2017-07-22T13:32:30.298Z,100727.61
2017-07-22T13:34:57.690Z,100718.84
2017-07-22T13:37:25.124Z,100718.98
2017-07-22T13:39:52.613Z,100714.02
2017-07-22T13:42:20.075Z,100718.63
2017-07-22T13:44:47.482Z,100713.00
2017-07-22T13:47:14.880Z,100703.97
2017-07-22T13:49:42.340Z,100707.47
2017-07-22T13:52:09.805Z,100705.81
2017-07-22T13:54:37.203Z,100704.41
2017-07-22T13:57:04.657Z,100696.72
2017-07-22T13:59:32.061Z,100690.43
2017-07-22T14:01:59.461Z,100688.92
2017-07-22T14:04:26.999Z,100691.19
2017-07-22T14:06:54.399Z,100682.19
2017-07-22T14:09:21.790Z,100679.14
2017-07-22T14:11:49.202Z,100674.37
2017-07-22T14:14:16.612Z,100671.40
2017-07-22T14:16:44.010Z,100678.34
2017-07-22T14:19:11.414Z,100671.81
2017-07-22T14:21:38.806Z,100667.18
2017-07-22T14:24:06.489Z,100664.75
2017-07-22T14:26:33.895Z,100662.95
2017-07-22T14:29:01.291Z,100669.14
2017-07-22T14:31:28.698Z,100659.70
2017-07-22T14:33:56.100Z,100660.39
2017-07-22T14:36:23.519Z,100666.21
2017-07-22T14:38:50.933Z,100660.95
2017-07-22T14:41:18.338Z,100659.34
2017-07-22T14:43:45.752Z,100665.88
2017-07-22T14:46:13.172Z,100662.92
2017-07-22T14:48:40.590Z,100659.12
2017-07-22T14:51:07.995Z,100660.01
2017-07-22T14:53:35.391Z,100652.33
2017-07-22T14:56:02.802Z,100644.84
2017-07-22T14:58:30.208Z,100645.72
2017-07-22T15:00:57.611Z,100650.56
2017-07-22T15:03:25.011Z,100650.98
2017-07-22T15:05:52.430Z,100647.42
2017-07-22T15:08:19.823Z,100644.80
2017-07-22T15:10:47.228Z,100647.86
2017-07-22T15:13:14.624Z,100639.70
2017-07-22T15:15:42.032Z,100644.03
2017-07-22T15:18:09.440Z,100642.67
2017-07-22T15:20:36.834Z,100640.53
2017-07-22T15:23:04.237Z,100646.31
2017-07-22T15:25:31.639Z,100648.08
2017-07-22T15:27:59.046Z,100643.44
2017-07-22T15:30:26.435Z,100636.23
2017-07-22T15:32:53.840Z,100647.66
2017-07-22T15:35:21.246Z,100645.72
2017-07-22T15:37:48.646Z,100646.97
2017-07-22T15:40:16.064Z,100650.53
2017-07-22T15:42:43.501Z,100649.74
2017-07-22T15:45:10.883Z,100659.72
2017-07-22T15:47:38.286Z,100664.05
2017-07-22T15:50:05.690Z,100665.14
2017-07-22T15:52:33.090Z,100661.84
2017-07-22T15:55:00.488Z,100662.41
2017-07-22T15:57:27.892Z,100664.31
2017-07-22T15:59:55.287Z,100658.38
2017-07-22T16:02:22.711Z,100657.31
2017-07-22T16:04:50.103Z,100660.50
2017-07-22T16:07:17.508Z,100659.94
2017-07-22T16:09:44.902Z,100662.44
2017-07-22T16:12:12.311Z,100661.06
2017-07-22T16:14:39.706Z,100650.77
2017-07-22T16:17:07.105Z,100653.26
2017-07-22T16:19:34.508Z,100656.45
2017-07-22T16:22:02.090Z,100649.36
2017-07-22T16:24:29.470Z,100635.44
2017-07-22T16:26:56.867Z,100635.72
2017-07-22T16:29:24.258Z,100623.70
2017-07-22T16:31:51.675Z,100626.95
2017-07-22T16:34:19.067Z,100627.34
2017-07-22T16:36:46.462Z,100631.01
2017-07-22T16:39:13.869Z,100621.97
2017-07-22T16:41:41.262Z,100628.66
2017-07-22T16:44:08.658Z,100628.27
2017-07-22T16:46:36.053Z,100627.41
2017-07-22T16:49:03.462Z,100628.31
2017-07-22T16:51:30.846Z,100628.89
2017-07-22T16:53:58.287Z,100621.34
2017-07-22T16:56:25.684Z,100622.34
2017-07-22T16:58:53.091Z,100624.36
2017-07-22T17:01:20.506Z,100623.14
2017-07-22T17:03:47.920Z,100624.88
2017-07-22T17:06:15.320Z,100639.62
2017-07-22T17:08:42.722Z,100640.52
2017-07-22T17:11:10.132Z,100647.44
2017-07-22T17:13:37.531Z,100638.89
2017-07-22T17:16:04.912Z,100635.42
2017-07-22T17:18:32.313Z,100644.99
2017-07-22T17:20:59.701Z,100643.11
2017-07-22T17:23:27.104Z,100640.33
2017-07-22T17:25:54.504Z,100639.55
2017-07-22T17:28:21.903Z,100643.52
2017-07-22T17:30:49.299Z,100646.47
2017-07-22T17:33:16.698Z,100636.63
2017-07-22T17:35:44.109Z,100631.17
2017-07-22T17:38:11.516Z,100623.91
2017-07-22T17:40:38.931Z,100626.83
2017-07-22T17:43:06.330Z,100638.62
2017-07-22T17:45:33.727Z,100647.84
2017-07-22T17:48:01.151Z,100641.09
2017-07-22T17:50:28.546Z,100640.13
2017-07-22T17:52:55.946Z,100640.33
2017-07-22T17:55:23.348Z,100648.64
2017-07-22T17:57:50.742Z,100648.84
2017-07-22T18:00:18.151Z,100643.98
2017-07-22T18:02:45.544Z,100645.33
2017-07-22T18:05:12.943Z,100650.56
2017-07-22T18:07:40.339Z,100641.94
2017-07-22T18:10:07.747Z,100635.91
2017-07-22T18:12:35.151Z,100638.91
2017-07-22T18:15:02.559Z,100639.14
2017-07-22T18:17:29.951Z,100632.09
2017-07-22T18:19:57.363Z,100630.48
2017-07-22T18:22:24.770Z,100632.00
2017-07-22T18:24:52.171Z,100621.80
2017-07-22T18:27:19.567Z,100604.03
2017-07-22T18:29:46.965Z,100605.46
2017-07-22T18:32:14.366Z,100610.05
2017-07-22T18:34:41.771Z,100616.77
2017-07-22T18:37:09.173Z,100623.02
2017-07-22T18:39:36.579Z,100625.55
2017-07-22T18:42:03.982Z,100621.93
2017-07-22T18:44:31.370Z,100609.62
2017-07-22T18:46:58.766Z,100607.34
2017-07-22T18:49:26.166Z,100602.25
2017-07-22T18:51:53.567Z,100616.16
2017-07-22T18:54:20.976Z,100618.94
2017-07-22T18:56:48.370Z,100618.84
2017-07-22T18:59:15.767Z,100603.61
2017-07-22T19:01:43.170Z,100596.57
2017-07-22T19:04:10.604Z,100592.66
2017-07-22T19:06:38.024Z,100601.47
2017-07-22T19:09:05.418Z,100602.75
2017-07-22T19:11:32.819Z,100602.89
2017-07-22T19:14:00.222Z,100602.48
2017-07-22T19:16:27.631Z,100606.79
2017-07-22T19:18:55.030Z,100594.67
2017-07-22T19:21:22.427Z,100593.95
2017-07-22T19:23:49.852Z,100599.31
2017-07-22T19:26:17.259Z,100596.34
2017-07-22T19:28:44.663Z,100591.24
2017-07-22T19:31:12.076Z,100588.55
2017-07-22T19:33:39.487Z,100597.89
2017-07-22T19:36:06.891Z,100590.76
2017-07-22T19:38:34.294Z,100590.03
2017-07-22T19:41:01.698Z,100587.03
2017-07-22T19:43:29.086Z,100590.98
2017-07-22T19:45:56.481Z,100586.39
2017-07-22T19:48:23.882Z,100589.91
2017-07-22T19:50:51.292Z,100593.03
2017-07-22T19:53:18.686Z,100584.12
2017-07-22T19:55:46.090Z,100582.92
2017-07-22T19:58:13.491Z,100583.94
2017-07-22T20:00:40.910Z,100584.73
2017-07-22T20:03:08.344Z,100589.87
2017-07-22T20:05:35.745Z,100598.53
2017-07-22T20:08:03.148Z,100591.48
2017-07-22T20:10:30.574Z,100596.55
2017-07-22T20:12:57.950Z,100590.91
2017-07-22T20:15:25.623Z,100596.70
2017-07-22T20:17:53.014Z,100590.28
2017-07-22T20:20:20.438Z,100593.96
2017-07-22T20:22:47.826Z,100596.61
2017-07-22T20:25:15.231Z,100587.91
2017-07-22T20:27:42.630Z,100592.67
2017-07-22T20:30:10.046Z,100599.14
2017-07-22T20:32:37.454Z,100592.98
2017-07-22T20:35:04.862Z,100600.03
2017-07-22T20:37:32.269Z,100593.39
2017-07-22T20:39:59.686Z,100598.53
2017-07-22T20:42:27.083Z,100584.97
2017-07-22T20:44:54.899Z,100591.23
2017-07-22T20:47:22.298Z,100597.30
2017-07-22T20:49:49.718Z,100612.63
2017-07-22T20:52:17.113Z,100607.13
2017-07-22T20:54:44.510Z,100614.02
2017-07-22T20:57:11.918Z,100613.41
2017-07-22T20:59:39.309Z,100618.73
2017-07-22T21:02:06.706Z,100615.48
2017-07-22T21:04:34.098Z,100617.09
2017-07-22T21:07:01.514Z,100619.34
2017-07-22T21:09:28.911Z,100619.16
2017-07-22T21:11:56.310Z,100610.66
2017-07-22T21:14:23.711Z,100604.61
2017-07-22T21:16:51.112Z,100602.78
2017-07-22T21:19:18.507Z,100596.23
2017-07-22T21:21:45.918Z,100596.08
2017-07-22T21:24:13.336Z,100587.09
2017-07-22T21:26:40.739Z,100584.17
2017-07-22T21:29:08.150Z,100574.90
2017-07-22T21:31:35.858Z,100571.61
2017-07-22T21:34:03.256Z,100567.05
2017-07-22T21:36:30.664Z,100567.42
2017-07-22T21:38:58.331Z,100567.14
2017-07-22T21:41:25.727Z,100572.02
2017-07-22T21:43:53.137Z,100573.19
2017-07-22T21:46:20.537Z,100571.48
2017-07-22T21:48:47.935Z,100570.30
2017-07-22T21:51:15.339Z,100573.02
2017-07-22T21:53:42.755Z,100573.23
2017-07-22T21:56:10.134Z,100566.02
2017-07-22T21:58:37.571Z,100563.16
2017-07-22T22:01:04.955Z,100564.53
2017-07-22T22:03:32.587Z,100564.53
2017-07-22T22:06:00.251Z,100565.25
2017-07-22T22:08:27.666Z,100559.70
2017-07-22T22:10:55.065Z,100556.34
2017-07-22T22:13:22.480Z,100556.34
2017-07-22T22:15:49.899Z,100559.55
2017-07-22T22:18:17.332Z,100563.91
2017-07-22T22:20:44.727Z,100568.29
2017-07-22T22:23:12.442Z,100573.91
2017-07-22T22:25:39.853Z,100576.69
2017-07-22T22:28:07.272Z,100570.88
2017-07-22T22:30:34.670Z,100574.42
2017-07-22T22:33:02.086Z,100571.63
2017-07-22T22:35:29.470Z,100579.69
2017-07-22T22:37:56.878Z,100575.01
2017-07-22T22:40:24.275Z,100573.66
2017-07-22T22:42:51.687Z,100570.53
2017-07-22T22:45:19.082Z,100558.38
2017-07-22T22:47:46.489Z,100555.25
2017-07-22T22:50:13.899Z,100541.66
2017-07-22T22:52:41.307Z,100535.35
2017-07-22T22:55:08.704Z,100535.86
2017-07-22T22:57:36.098Z,100527.62
2017-07-22T23:00:03.519Z,100523.25
2017-07-22T23:02:30.926Z,100518.22
2017-07-22T23:04:58.327Z,100514.51
2017-07-22T23:07:25.718Z,100512.25
2017-07-22T23:09:53.127Z,100501.74
2017-07-22T23:12:20.519Z,100504.42
2017-07-22T23:14:48.216Z,100503.19
2017-07-22T23:17:15.619Z,100505.28
2017-07-22T23:19:43.022Z,100505.45
2017-07-22T23:22:10.425Z,100515.20
2017-07-22T23:24:37.826Z,100498.73
2017-07-22T23:27:05.224Z,100503.44
2017-07-22T23:29:32.618Z,100499.50
2017-07-22T23:32:00.012Z,100494.12
2017-07-22T23:34:27.427Z,100495.37
2017-07-22T23:36:54.819Z,100489.92
2017-07-22T23:39:22.225Z,100483.63
2017-07-22T23:41:49.620Z,100479.91
2017-07-22T23:44:17.023Z,100477.17
2017-07-22T23:46:45.390Z,100474.31
2017-07-22T23:49:13.019Z,100466.56
2017-07-22T23:51:40.410Z,100459.03
2017-07-22T23:54:07.814Z,100451.72
2017-07-22T23:56:35.217Z,100441.64
2017-07-22T23:59:02.630Z,100441.50
